Time;durP1;ratioP1;P1;durP2;ratioP2;P2;SDS_P1;SDS_P2;PMS_P1;PMS_P2;Temp;Humidity;BMP_temperature;BMP_pressure;BME280_temperature;BME280_humidity;BME280_pressure;Samples;Min_cycle;Max_cycle;Signal;HPM_P1;HPM_P2
2023/10/24 00:00:22;;;;;;;1.37;1.20;;;;;;;-143.84;61.98;45039.53;5070384;28;20448;-60
2023/10/24 00:02:49;;;;;;;1.23;0.60;;;;;;;-143.84;61.82;45049.06;5069116;28;20866;-60
2023/10/24 00:05:16;;;;;;;2.30;1.93;;;;;;;-143.84;61.39;45014.78;5068955;28;20445;-60
2023/10/24 00:07:46;;;;;;;1.10;1.00;;;;;;;-143.84;61.28;45068.13;5068815;28;20506;-60
2023/10/24 00:10:14;;;;;;;2.50;1.00;;;;;;;-143.84;61.27;45014.78;5069199;28;20891;-60
2023/10/24 00:12:41;;;;;;;1.27;0.63;;;;;;;-143.84;61.38;45007.19;5068015;28;20546;-60
2023/10/24 00:15:10;;;;;;;0.90;0.60;;;;;;;-143.84;61.49;45031.94;5088241;28;20448;-60
2023/10/24 00:17:37;;;;;;;2.87;0.70;;;;;;;-143.84;61.39;45033.84;5088950;28;20440;-60
2023/10/24 00:20:06;;;;;;;1.10;0.60;;;;;;;-143.84;61.42;45052.88;5088764;28;20524;-60
2023/10/24 00:22:33;;;;;;;1.10;0.90;;;;;;;-143.84;61.10;45049.06;5088891;28;20505;-60
2023/10/24 00:25:00;;;;;;;0.90;0.60;;;;;;;-143.84;60.80;45030.03;5088994;28;20428;-60
2023/10/24 00:27:27;;;;;;;1.00;0.70;;;;;;;-143.84;60.10;45043.34;5089330;28;20526;-60
2023/10/24 00:29:54;;;;;;;1.20;0.90;;;;;;;-143.84;59.12;45045.25;5089135;28;21027;-60
2023/10/24 00:32:23;;;;;;;0.90;0.67;;;;;;;-143.84;58.90;45039.53;5088796;28;20482;-60
2023/10/24 00:34:50;;;;;;;2.10;1.10;;;;;;;-143.84;59.01;45007.19;5088555;28;21012;-60
2023/10/24 00:37:17;;;;;;;1.40;0.90;;;;;;;-143.84;58.90;45049.06;5088791;28;20493;-60
2023/10/24 00:39:44;;;;;;;0.90;0.60;;;;;;;-143.84;58.45;45075.72;5089039;28;20864;-60
2023/10/24 00:42:12;;;;;;;1.60;0.80;;;;;;;-143.84;58.59;45039.53;5088746;28;20432;-60
2023/10/24 00:44:39;;;;;;;1.37;1.17;;;;;;;-143.84;58.83;45024.31;5088146;28;20976;-60
2023/10/24 00:47:06;;;;;;;0.83;0.50;;;;;;;-143.84;59.04;45043.34;5088493;28;20444;-60
2023/10/24 00:49:35;;;;;;;1.80;1.07;;;;;;;-143.84;58.97;45045.25;5088900;28;21023;-60
2023/10/24 00:52:02;;;;;;;1.50;1.10;;;;;;;-143.84;59.35;45070.00;5088839;28;20505;-60
2023/10/24 00:54:33;;;;;;;0.90;0.60;;;;;;;-143.84;59.70;45052.88;5088972;28;20436;-60
2023/10/24 00:57:00;;;;;;;1.13;0.80;;;;;;;-143.84;59.89;45022.41;5088642;28;20921;-60
2023/10/24 00:59:28;;;;;;;1.43;1.33;;;;;;;-143.84;59.13;45070.00;5088652;28;20456;-60
2023/10/24 01:01:56;;;;;;;4.07;1.63;;;;;;;-143.84;57.97;45047.16;5088853;28;20497;-60
2023/10/24 01:04:24;;;;;;;1.83;0.70;;;;;;;-143.84;57.40;45028.13;5088534;28;20450;-60
2023/10/24 01:06:53;;;;;;;1.00;0.77;;;;;;;-143.84;57.15;45054.78;5088469;28;20852;-60
2023/10/24 01:09:20;;;;;;;1.23;0.93;;;;;;;-143.84;57.16;45033.84;5088463;28;20443;-60
2023/10/24 01:11:49;;;;;;;2.70;2.50;;;;;;;-143.84;57.09;45037.66;5088590;28;20450;-60
2023/10/24 01:14:16;;;;;;;0.90;0.60;;;;;;;-143.84;56.67;45047.16;5088644;28;20545;-60
2023/10/24 01:16:44;;;;;;;2.47;2.00;;;;;;;-143.84;56.15;45039.53;5088691;28;20937;-60
2023/10/24 01:19:11;;;;;;;1.23;1.00;;;;;;;-143.84;56.11;45030.03;5088598;28;20440;-60
2023/10/24 01:21:44;;;;;;;0.80;0.50;;;;;;;-143.84;58.33;45024.31;5088517;28;20430;-60
2023/10/24 01:24:13;;;;;;;1.00;0.70;;;;;;;-143.84;61.55;45052.88;5089356;28;20448;-57
2023/10/24 01:26:41;;;;;;;1.63;0.57;;;;;;;-143.84;60.76;45033.84;5093141;28;20439;-57
2023/10/24 01:29:09;;;;;;;0.93;0.83;;;;;;;-143.84;59.13;45060.50;5093381;28;20850;-57
2023/10/24 01:31:36;;;;;;;0.80;0.53;;;;;;;-143.84;59.33;45039.53;5093406;28;20436;-57
2023/10/24 01:34:03;;;;;;;1.10;0.80;;;;;;;-143.84;59.68;45037.66;5092698;28;20499;-57
2023/10/24 01:36:31;;;;;;;1.10;0.70;;;;;;;-143.84;59.05;45037.66;5093003;28;20428;-57
2023/10/24 01:38:59;;;;;;;1.07;0.97;;;;;;;-143.84;59.84;45039.53;5092796;28;20497;-57
2023/10/24 01:41:26;;;;;;;1.03;0.93;;;;;;;-143.84;58.99;45045.25;5092907;28;20505;-57
2023/10/24 01:43:54;;;;;;;0.80;0.50;;;;;;;-143.84;57.73;45028.13;5092476;28;20435;-57
2023/10/24 01:46:21;;;;;;;1.77;0.57;;;;;;;-143.84;57.45;45068.13;5092392;28;20436;-57
2023/10/24 01:48:48;;;;;;;1.17;1.07;;;;;;;-143.84;56.58;45049.06;5091316;28;20489;-59
2023/10/24 01:51:15;;;;;;;0.80;0.47;;;;;;;-143.84;56.30;45047.16;5091723;28;20447;-59
2023/10/24 01:53:42;;;;;;;1.37;0.60;;;;;;;-143.84;56.43;45052.88;5091580;28;20536;-59
2023/10/24 01:56:13;;;;;;;3.00;0.90;;;;;;;-143.84;56.10;45043.34;5092058;28;20840;-59
2023/10/24 01:58:40;;;;;;;1.10;0.70;;;;;;;-143.84;55.43;45028.13;5091791;28;21009;-59
2023/10/24 02:01:07;;;;;;;1.20;0.60;;;;;;;-143.84;54.34;45033.84;5091990;28;20874;-59
2023/10/24 02:03:35;;;;;;;0.90;0.60;;;;;;;-143.84;54.02;45049.06;5091805;28;20444;-59
2023/10/24 02:06:02;;;;;;;0.90;0.70;;;;;;;-143.84;55.51;45026.22;5091525;28;20967;-59
2023/10/24 02:08:29;;;;;;;0.90;0.80;;;;;;;-143.84;55.07;45054.78;5091721;28;20428;-59
2023/10/24 02:10:56;;;;;;;0.83;0.50;;;;;;;-143.84;55.05;45035.75;5091777;28;20436;-59
2023/10/24 02:13:25;;;;;;;1.77;0.97;;;;;;;-143.84;55.37;45035.75;5091620;28;21025;-59
2023/10/24 02:15:54;;;;;;;2.10;1.00;;;;;;;-143.84;57.71;45052.88;5091463;28;20444;-59
2023/10/24 02:18:21;;;;;;;1.53;1.10;;;;;;;-143.84;58.74;45043.34;5091358;28;20803;-59
2023/10/24 02:20:48;;;;;;;0.87;0.53;;;;;;;-143.84;58.98;45049.06;5091393;28;20798;-59
2023/10/24 02:23:15;;;;;;;1.10;0.70;;;;;;;-143.84;59.01;45056.69;5091380;28;20833;-59
2023/10/24 02:25:42;;;;;;;2.20;0.80;;;;;;;-143.84;57.91;45037.66;5091371;28;20440;-59
2023/10/24 02:28:09;;;;;;;1.70;1.60;;;;;;;-143.84;57.40;45079.53;5091163;28;20522;-59
2023/10/24 02:30:39;;;;;;;1.00;0.90;;;;;;;-143.84;57.16;45043.34;5091382;28;20527;-59
2023/10/24 02:33:06;;;;;;;3.10;1.60;;;;;;;-143.84;56.41;45079.53;5091053;28;20492;-59
2023/10/24 02:35:33;;;;;;;1.00;0.70;;;;;;;-143.84;56.85;45045.25;5090269;28;20444;-59
2023/10/24 02:38:00;;;;;;;1.10;0.60;;;;;;;-143.84;56.54;45045.25;5091231;28;20436;-59
2023/10/24 02:40:27;;;;;;;1.00;0.80;;;;;;;-143.84;56.42;45047.16;5091031;28;20968;-59
2023/10/24 02:42:54;;;;;;;3.53;1.00;;;;;;;-143.84;56.26;45041.44;5091062;28;20447;-58
2023/10/24 02:45:21;;;;;;;1.00;0.80;;;;;;;-143.84;55.99;45022.41;5090319;28;20501;-59
2023/10/24 02:47:50;;;;;;;0.90;0.60;;;;;;;-143.84;55.62;45049.06;5090371;28;20443;-58
2023/10/24 02:50:17;;;;;;;1.23;1.07;;;;;;;-143.84;54.91;45033.84;5090388;28;20444;-58
2023/10/24 02:52:44;;;;;;;0.80;0.50;;;;;;;-143.84;54.55;45043.34;5090912;28;20436;-59
2023/10/24 02:55:12;;;;;;;0.97;0.73;;;;;;;-143.84;54.52;45062.41;5090853;28;20497;-59
2023/10/24 02:57:39;;;;;;;0.90;0.67;;;;;;;-143.84;54.58;45070.00;5090640;28;20999;-59
2023/10/24 03:00:08;;;;;;;1.30;1.20;;;;;;;-143.84;55.04;45073.81;5090780;28;20440;-58
2023/10/24 03:02:35;;;;;;;1.60;1.00;;;;;;;-143.84;55.66;45045.25;5090767;28;20436;-59
2023/10/24 03:05:03;;;;;;;1.47;0.80;;;;;;;-143.84;56.48;45039.53;5070238;28;20457;-59
2023/10/24 03:07:31;;;;;;;1.40;0.90;;;;;;;-143.84;57.24;45068.13;5070606;28;20449;-58
2023/10/24 03:09:58;;;;;;;1.53;1.37;;;;;;;-143.84;57.71;45068.13;5070200;28;20491;-59
2023/10/24 03:12:25;;;;;;;0.90;0.67;;;;;;;-143.84;57.83;45066.22;5070208;28;20440;-58
2023/10/24 03:14:52;;;;;;;1.10;0.87;;;;;;;-143.84;57.68;45049.06;5070197;28;20846;-58
2023/10/24 03:17:19;;;;;;;1.00;0.90;;;;;;;-143.84;57.78;45070.00;5069973;28;20445;-59
2023/10/24 03:19:46;;;;;;;0.80;0.50;;;;;;;-143.84;58.16;45041.44;5069958;28;20471;-59
2023/10/24 03:22:15;;;;;;;2.57;0.73;;;;;;;-143.84;58.25;45052.88;5070126;28;20939;-58
2023/10/24 03:24:42;;;;;;;0.80;0.50;;;;;;;-143.84;58.56;45041.44;5069758;28;20502;-59
2023/10/24 03:27:12;;;;;;;2.10;0.70;;;;;;;-143.84;59.18;45052.88;5069831;28;20904;-58
2023/10/24 03:29:40;;;;;;;1.00;0.70;;;;;;;-143.84;59.83;45054.78;5069650;28;21118;-58
2023/10/24 03:32:07;;;;;;;1.73;1.57;;;;;;;-143.84;60.45;45049.06;5070110;28;20447;-58
2023/10/24 03:34:35;;;;;;;1.87;0.80;;;;;;;-143.84;60.58;45070.00;5069059;28;20492;-58
2023/10/24 03:37:03;;;;;;;1.40;1.00;;;;;;;-143.84;60.38;45068.13;5069644;28;20494;-59
2023/10/24 03:39:31;;;;;;;2.70;1.50;;;;;;;-143.84;60.30;45052.88;5069897;28;20437;-58
2023/10/24 03:41:58;;;;;;;1.10;0.90;;;;;;;-143.84;60.35;45049.06;5069652;28;20453;-58
2023/10/24 03:44:25;;;;;;;1.53;0.73;;;;;;;-143.84;60.66;45041.44;5069419;28;20883;-59
2023/10/24 03:46:52;;;;;;;1.53;1.30;;;;;;;-143.84;61.56;45083.34;5084050;28;20440;-58
2023/10/24 03:49:20;;;;;;;1.17;1.07;;;;;;;-143.84;61.86;45047.16;5088346;28;20464;-58
2023/10/24 03:51:47;;;;;;;1.50;1.27;;;;;;;-143.84;62.29;45058.59;5089416;28;20866;-58
2023/10/24 03:54:15;;;;;;;1.20;1.10;;;;;;;-143.84;62.35;45098.56;5089386;28;20527;-58
2023/10/24 03:56:44;;;;;;;1.00;0.70;;;;;;;-143.84;62.81;45039.53;5089136;28;20428;-58
2023/10/24 03:59:11;;;;;;;1.00;0.80;;;;;;;-143.84;63.08;45070.00;5089226;28;20444;-59
2023/10/24 04:01:38;;;;;;;0.90;0.60;;;;;;;-143.84;62.53;45043.34;5088946;28;20760;-58
2023/10/24 04:04:06;;;;;;;1.97;1.10;;;;;;;-143.84;61.95;45066.22;5088370;28;20448;-58
2023/10/24 04:06:34;;;;;;;1.00;0.87;;;;;;;-143.84;61.91;45049.06;5088721;28;20439;-58
2023/10/24 04:09:04;;;;;;;0.90;0.70;;;;;;;-143.84;62.17;45081.44;5089367;28;20544;-58
2023/10/24 04:11:33;;;;;;;1.20;0.83;;;;;;;-143.84;61.74;45060.50;5088542;28;20443;-58
2023/10/24 04:14:02;;;;;;;1.70;1.60;;;;;;;-143.84;61.68;45087.16;5088529;28;20566;-58
2023/10/24 04:16:29;;;;;;;0.90;0.70;;;;;;;-143.84;61.60;45043.34;5089120;28;20448;-58
2023/10/24 04:18:56;;;;;;;0.80;0.50;;;;;;;-143.84;61.92;45073.81;5089308;28;20436;-58
2023/10/24 04:21:23;;;;;;;0.90;0.50;;;;;;;-143.84;64.75;45073.81;5089157;28;20440;-58
2023/10/24 04:23:50;;;;;;;1.17;0.83;;;;;;;-143.84;67.86;45049.06;5089422;28;20504;-58
2023/10/24 04:26:18;;;;;;;1.00;0.70;;;;;;;-143.84;68.68;45096.66;5088940;28;20467;-58
2023/10/24 04:28:45;;;;;;;2.03;1.57;;;;;;;-143.84;67.90;45056.69;5088835;28;20450;-58
2023/10/24 04:31:13;;;;;;;2.23;1.20;;;;;;;-143.84;66.32;45056.69;5088865;28;20862;-59
2023/10/24 04:33:41;;;;;;;1.27;1.10;;;;;;;-143.84;64.65;45081.44;5088634;28;20488;-59
2023/10/24 04:36:11;;;;;;;1.10;1.00;;;;;;;-143.84;64.17;45111.91;5087796;28;20580;-59
2023/10/24 04:38:38;;;;;;;1.23;0.90;;;;;;;-143.84;63.42;45071.91;5088934;28;20438;-59
2023/10/24 04:41:06;;;;;;;0.90;0.60;;;;;;;-143.84;63.11;45030.03;5088757;28;20444;-59
2023/10/24 04:43:33;;;;;;;0.90;0.60;;;;;;;-143.84;62.54;45068.13;5088934;28;20443;-57
2023/10/24 04:46:00;;;;;;;1.77;0.97;;;;;;;-143.84;62.29;45073.81;5088887;28;20439;-57
2023/10/24 04:48:29;;;;;;;2.10;0.97;;;;;;;-143.84;62.09;45068.13;5089119;28;20538;-56
2023/10/24 04:50:56;;;;;;;1.20;0.70;;;;;;;-143.84;61.78;45052.88;5088802;28;20440;-57
2023/10/24 04:53:23;;;;;;;0.97;0.80;;;;;;;-143.84;61.77;45050.97;5088954;28;20436;-57
2023/10/24 04:55:50;;;;;;;0.90;0.80;;;;;;;-143.84;61.10;45062.41;5088537;28;20440;-57
2023/10/24 04:58:18;;;;;;;1.93;1.37;;;;;;;-143.84;61.10;45041.44;5087832;28;20460;-57
2023/10/24 05:00:45;;;;;;;0.80;0.50;;;;;;;-143.84;60.87;45064.31;5087595;28;20948;-57
2023/10/24 05:03:12;;;;;;;0.90;0.80;;;;;;;-143.84;60.87;45050.97;5088659;28;20509;-57
2023/10/24 05:05:40;;;;;;;1.10;0.87;;;;;;;-143.84;61.46;45068.13;5089073;28;20446;-57
2023/10/24 05:08:10;;;;;;;1.57;0.77;;;;;;;-143.84;61.65;45066.22;5088702;28;20447;-57
2023/10/24 05:10:37;;;;;;;1.30;0.80;;;;;;;-143.84;61.23;45064.31;5088946;28;21117;-57
2023/10/24 05:13:04;;;;;;;1.00;0.60;;;;;;;-143.84;60.89;45062.41;5088683;28;20803;-57
2023/10/24 05:15:31;;;;;;;5.33;1.47;;;;;;;-143.84;60.74;45026.22;5088693;28;20479;-57
2023/10/24 05:17:59;;;;;;;1.00;0.70;;;;;;;-143.84;59.98;45056.69;5088950;28;20813;-57
2023/10/24 05:20:26;;;;;;;0.90;0.60;;;;;;;-143.84;59.78;45066.22;5088813;28;20436;-57
2023/10/24 05:22:54;;;;;;;4.00;0.93;;;;;;;-143.84;59.56;45028.13;5088910;28;20436;-57
2023/10/24 05:25:22;;;;;;;1.80;0.70;;;;;;;-143.84;59.40;45039.53;5089009;28;20448;-57
2023/10/24 05:27:49;;;;;;;1.50;0.83;;;;;;;-143.84;59.16;45047.16;5089457;28;20493;-57
2023/10/24 05:30:16;;;;;;;2.50;1.00;;;;;;;-143.84;57.88;45052.88;5089684;28;21328;-57
2023/10/24 05:32:43;;;;;;;1.50;1.30;;;;;;;-143.84;58.42;45037.66;5089675;28;20432;-58
2023/10/24 05:35:10;;;;;;;1.30;1.07;;;;;;;-143.84;58.13;45050.97;5089188;28;20591;-57
2023/10/24 05:37:37;;;;;;;0.83;0.50;;;;;;;-143.84;58.01;45047.16;5089424;28;20432;-57
2023/10/24 05:40:07;;;;;;;1.17;0.60;;;;;;;-143.84;58.21;45037.66;5089824;28;21195;-57
2023/10/24 05:42:33;;;;;;;0.83;0.53;;;;;;;-143.84;57.13;45050.97;5089071;28;20435;-57
2023/10/24 05:45:01;;;;;;;1.30;1.20;;;;;;;-143.84;55.77;45037.66;5089329;28;20534;-57
2023/10/24 05:47:28;;;;;;;1.17;0.93;;;;;;;-143.84;54.63;45070.00;5089845;28;20505;-57
2023/10/24 05:49:55;;;;;;;1.00;0.73;;;;;;;-143.84;53.15;45043.34;5089061;28;20444;-57
2023/10/24 05:52:22;;;;;;;1.03;0.80;;;;;;;-143.84;51.77;45020.50;5089300;28;20440;-57
2023/10/24 05:54:49;;;;;;;0.83;0.50;;;;;;;-143.84;53.72;45026.22;5089092;28;20529;-57
2023/10/24 05:57:17;;;;;;;1.30;0.83;;;;;;;-143.84;53.48;45007.19;5089519;28;20470;-57
2023/10/24 05:59:45;;;;;;;1.07;0.50;;;;;;;-143.84;51.64;45020.50;5088399;28;20440;-59
2023/10/24 06:02:12;;;;;;;0.90;0.67;;;;;;;-143.84;51.40;45028.13;5087992;28;20489;-59
2023/10/24 06:04:39;;;;;;;2.83;1.13;;;;;;;-143.84;49.82;45022.41;5087486;28;20502;-60
2023/10/24 06:07:07;;;;;;;0.83;0.57;;;;;;;-143.84;49.81;45035.75;5087283;28;20439;-59
2023/10/24 06:09:34;;;;;;;2.20;0.50;;;;;;;-143.84;49.14;45022.41;5087856;28;20443;-59
2023/10/24 06:12:01;;;;;;;1.67;0.63;;;;;;;-143.84;46.91;45024.31;5089985;28;20436;-59
2023/10/24 06:14:29;;;;;;;1.00;0.70;;;;;;;-143.84;46.21;45007.19;5091598;28;20472;-59
2023/10/24 06:16:57;;;;;;;1.10;0.80;;;;;;;-143.84;45.95;45026.22;5091811;28;20497;-59
2023/10/24 06:19:24;;;;;;;2.10;1.80;;;;;;;-143.84;46.00;44990.03;5091677;28;20444;-59
2023/10/24 06:21:51;;;;;;;1.50;0.60;;;;;;;-143.84;45.54;45026.22;5091478;28;20444;-59
2023/10/24 06:24:18;;;;;;;1.30;0.87;;;;;;;-143.84;45.60;45020.50;5091220;28;20474;-59
2023/10/24 06:26:46;;;;;;;1.57;0.70;;;;;;;-143.84;44.92;45005.28;5091538;28;21175;-59
2023/10/24 06:29:13;;;;;;;1.20;1.00;;;;;;;-143.84;44.15;45037.66;5091241;28;20526;-59
2023/10/24 06:31:42;;;;;;;2.60;1.13;;;;;;;-143.84;45.44;45012.88;5091340;28;20440;-59
2023/10/24 06:34:09;;;;;;;2.03;0.80;;;;;;;-143.84;44.10;45009.09;5091280;28;20487;-60
2023/10/24 06:36:36;;;;;;;1.27;0.80;;;;;;;-143.84;43.70;45001.47;5091256;28;20490;-60
2023/10/24 06:39:04;;;;;;;0.90;0.63;;;;;;;-143.84;43.41;44997.66;5091098;28;20777;-60
2023/10/24 06:41:31;;;;;;;0.90;0.53;;;;;;;-143.84;42.75;44984.31;5091040;28;20444;-59
2023/10/24 06:43:58;;;;;;;0.80;0.40;;;;;;;-143.84;42.02;44999.56;5090820;28;20451;-59
2023/10/24 06:46:26;;;;;;;0.80;0.40;;;;;;;-143.84;41.76;45001.47;5090809;28;20444;-59
2023/10/24 06:48:54;;;;;;;1.90;0.80;;;;;;;-143.84;41.22;44988.13;5090914;28;20440;-59
2023/10/24 06:51:22;;;;;;;0.90;0.47;;;;;;;-143.84;41.27;44984.31;5090788;28;20460;-60
2023/10/24 06:53:49;;;;;;;1.10;0.60;;;;;;;-143.84;41.17;44984.31;5090777;28;20497;-59
2023/10/24 06:56:16;;;;;;;1.10;0.87;;;;;;;-143.84;41.00;44982.41;5090620;28;20540;-60
2023/10/24 06:58:43;;;;;;;0.90;0.60;;;;;;;-143.84;41.14;44999.56;5090771;28;20440;-59
2023/10/24 07:01:10;;;;;;;1.23;0.63;;;;;;;-143.84;40.43;44984.31;5090550;28;20440;-59
2023/10/24 07:03:37;;;;;;;1.20;0.80;;;;;;;-143.84;40.94;44988.13;5090562;28;20509;-59
2023/10/24 07:06:06;;;;;;;2.70;0.93;;;;;;;-143.84;40.94;44978.63;5090616;28;20444;-59
2023/10/24 07:08:34;;;;;;;1.10;0.93;;;;;;;-143.84;42.11;44955.75;5090829;28;20508;-59
2023/10/24 07:11:01;;;;;;;1.40;1.00;;;;;;;-143.84;41.90;44980.53;5090595;28;20481;-59
2023/10/24 07:13:29;;;;;;;1.27;1.00;;;;;;;-143.84;40.49;44988.13;5090368;28;20447;-59
2023/10/24 07:15:56;;;;;;;1.10;0.80;;;;;;;-143.84;40.56;44978.63;5090144;28;20480;-59
2023/10/24 07:18:23;;;;;;;1.10;0.70;;;;;;;-143.84;40.38;44982.41;5089874;28;21154;-59
2023/10/24 07:20:50;;;;;;;0.97;0.83;;;;;;;-143.84;40.09;44965.28;5089855;28;20443;-59
2023/10/24 07:23:19;;;;;;;0.90;0.63;;;;;;;-143.84;38.96;44982.41;5089506;28;20440;-59
2023/10/24 07:25:46;;;;;;;1.10;0.60;;;;;;;-143.84;39.34;44988.13;5090856;28;20452;-59
2023/10/24 07:28:13;;;;;;;1.10;0.70;;;;;;;-143.84;38.91;44969.09;5090322;28;21381;-59
2023/10/24 07:30:40;;;;;;;0.90;0.63;;;;;;;-143.84;37.99;44976.72;5090576;28;21175;-59
2023/10/24 07:33:07;;;;;;;1.83;1.07;;;;;;;-143.84;38.89;44953.88;5090169;28;20457;-59
2023/10/24 07:35:34;;;;;;;1.00;0.67;;;;;;;-143.84;38.61;44950.06;5090258;28;20475;-59
2023/10/24 07:38:01;;;;;;;0.90;0.40;;;;;;;-143.84;37.75;44976.72;5090265;28;20448;-59
2023/10/24 07:40:30;;;;;;;1.10;0.77;;;;;;;-143.84;38.49;44950.06;5090213;28;20450;-59
2023/10/24 07:42:57;;;;;;;1.40;0.90;;;;;;;-143.84;37.12;44948.16;5090401;28;20436;-57
2023/10/24 07:45:24;;;;;;;1.30;1.20;;;;;;;-143.84;37.38;44955.75;5090159;28;20440;-57
2023/10/24 07:47:52;;;;;;;2.17;1.20;;;;;;;-143.84;36.59;44915.78;5089987;28;20431;-57
2023/10/24 07:50:19;;;;;;;1.50;1.40;;;;;;;-143.84;38.00;44915.78;5090056;28;20527;-56
2023/10/24 07:52:46;;;;;;;3.83;1.80;;;;;;;-143.84;37.01;44921.50;5089895;28;20443;-57
2023/10/24 07:55:13;;;;;;;1.30;1.00;;;;;;;-143.84;36.94;44946.25;5089923;28;20471;-56
2023/10/24 07:57:42;;;;;;;1.10;0.90;;;;;;;-143.84;36.30;44936.72;5090038;28;20988;-56
2023/10/24 08:00:10;;;;;;;1.00;0.80;;;;;;;-143.84;36.14;44919.59;5090047;28;20467;-57
2023/10/24 08:02:37;;;;;;;1.50;1.00;;;;;;;-143.84;35.99;44953.88;5090230;28;20436;-57
2023/10/24 08:05:05;;;;;;;1.97;1.10;;;;;;;-143.84;36.11;44965.28;5089557;28;20493;-57
2023/10/24 08:07:32;;;;;;;5.60;2.10;;;;;;;-143.84;35.80;44944.34;5090905;28;20440;-57
2023/10/24 08:09:59;;;;;;;2.03;1.70;;;;;;;-143.84;36.44;44927.19;5091504;28;20424;-57
2023/10/24 08:12:26;;;;;;;1.10;0.73;;;;;;;-143.84;36.44;44938.63;5091663;28;20725;-57
2023/10/24 08:14:55;;;;;;;1.40;0.70;;;;;;;-143.84;35.80;44957.66;5089496;28;20476;-57
2023/10/24 08:17:22;;;;;;;3.77;1.43;;;;;;;-143.84;35.84;44932.91;5089746;28;20448;-57
2023/10/24 08:19:49;;;;;;;1.20;0.90;;;;;;;-143.84;36.37;44940.53;5089426;28;21121;-56
2023/10/24 08:22:16;;;;;;;1.00;0.90;;;;;;;-143.84;35.84;44955.75;5091177;28;20440;-57
2023/10/24 08:24:43;;;;;;;1.10;0.60;;;;;;;-143.84;35.08;44932.91;5090959;28;20440;-58
2023/10/24 08:27:11;;;;;;;1.73;1.00;;;;;;;-143.84;35.67;44936.72;5090501;28;20806;-57
2023/10/24 08:29:39;;;;;;;1.77;0.97;;;;;;;-143.84;35.14;44951.97;5090212;28;20451;-57
2023/10/24 08:32:08;;;;;;;1.10;0.70;;;;;;;-143.84;35.80;44927.19;5090983;28;20513;-57
2023/10/24 08:34:36;;;;;;;1.07;0.97;;;;;;;-143.84;34.83;44929.09;5088514;28;20480;-58
2023/10/24 08:37:04;;;;;;;1.07;0.90;;;;;;;-143.84;35.16;44927.19;5089369;28;20440;-57
2023/10/24 08:39:31;;;;;;;0.90;0.77;;;;;;;-143.84;34.81;44959.56;5090733;28;20513;-57
2023/10/24 08:41:59;;;;;;;1.57;1.30;;;;;;;-143.84;34.75;44919.59;5091202;28;20439;-58
2023/10/24 08:44:28;;;;;;;0.90;0.60;;;;;;;-143.84;34.41;44934.81;5090911;28;20432;-57
2023/10/24 08:46:55;;;;;;;0.90;0.47;;;;;;;-143.84;34.48;44915.78;5090249;28;20436;-57
2023/10/24 08:49:24;;;;;;;1.00;0.63;;;;;;;-143.84;34.82;44910.06;5089402;28;20489;-57
2023/10/24 08:51:52;;;;;;;2.93;0.70;;;;;;;-143.84;34.56;44911.97;5090259;28;20442;-57
2023/10/24 08:54:19;;;;;;;0.90;0.70;;;;;;;-143.84;34.26;44923.41;5090057;28;20436;-57
2023/10/24 08:56:47;;;;;;;1.00;0.90;;;;;;;-143.84;34.36;44942.44;5090910;28;20552;-58
2023/10/24 08:59:15;;;;;;;1.10;0.80;;;;;;;-143.84;34.11;44919.59;5090827;28;20444;-58
2023/10/24 09:01:42;;;;;;;0.80;0.50;;;;;;;-143.84;34.22;44917.69;5089813;28;20440;-59
2023/10/24 09:04:10;;;;;;;1.10;1.00;;;;;;;-143.84;34.51;44938.63;5090154;28;20428;-58
2023/10/24 09:06:39;;;;;;;0.90;0.80;;;;;;;-143.84;34.84;44946.25;5090629;28;20480;-57
2023/10/24 09:09:06;;;;;;;1.20;0.50;;;;;;;-143.84;34.29;44900.53;5090416;28;20452;-58
2023/10/24 09:11:56;;;;;;;1.73;1.57;;;;;;;-143.84;35.14;44923.41;5090506;28;20424;-57
2023/10/24 09:14:24;;;;;;;1.20;0.57;;;;;;;-143.84;34.60;44923.41;5086698;28;20476;-57
2023/10/24 09:16:55;;;;;;;0.87;0.47;;;;;;;-143.84;34.49;44932.91;5090447;28;20479;-57
2023/10/24 09:19:22;;;;;;;10.13;1.03;;;;;;;-143.84;34.63;44923.41;5090062;28;20450;-57
2023/10/24 09:21:52;;;;;;;1.10;0.70;;;;;;;-143.84;34.74;44934.81;5090445;28;20493;-57
2023/10/24 09:24:20;;;;;;;1.20;1.10;;;;;;;-143.84;34.44;44931.00;5090301;28;20539;-57
2023/10/24 09:26:52;;;;;;;1.20;0.80;;;;;;;-143.84;34.19;44948.16;5090143;28;20444;-57
2023/10/24 09:29:20;;;;;;;1.80;0.83;;;;;;;-143.84;34.79;44925.31;5090196;28;20468;-57
2023/10/24 09:31:48;;;;;;;1.27;1.17;;;;;;;-143.84;34.82;44898.66;5090371;28;20443;-57
2023/10/24 09:34:16;;;;;;;0.90;0.50;;;;;;;-143.84;35.17;44927.19;5090308;28;20483;-57
2023/10/24 09:36:44;;;;;;;1.17;0.80;;;;;;;-143.84;35.13;44934.81;5089080;28;20479;-59
2023/10/24 09:39:13;;;;;;;0.90;0.60;;;;;;;-143.84;35.04;44927.19;5088247;28;20485;-59
2023/10/24 09:41:42;;;;;;;0.90;0.67;;;;;;;-143.84;35.28;44953.88;5087930;28;20973;-59
2023/10/24 09:44:09;;;;;;;1.60;1.07;;;;;;;-143.84;34.96;44948.16;5087985;28;20800;-59
2023/10/24 09:46:37;;;;;;;0.90;0.60;;;;;;;-143.84;35.59;44931.00;5091098;28;20481;-59
2023/10/24 09:49:06;;;;;;;1.00;0.67;;;;;;;-143.84;35.64;44950.06;5091971;28;20444;-59
2023/10/24 09:51:35;;;;;;;1.57;1.00;;;;;;;-143.84;35.76;44911.97;5091828;28;20444;-59
2023/10/24 09:54:03;;;;;;;1.10;0.80;;;;;;;-143.84;35.95;44950.06;5091950;28;20444;-59
2023/10/24 09:56:32;;;;;;;1.57;0.93;;;;;;;-143.84;35.48;44950.06;5091912;28;21029;-59
2023/10/24 09:59:00;;;;;;;1.73;1.33;;;;;;;-143.84;36.55;44951.97;5091838;28;20894;-59
2023/10/24 10:01:29;;;;;;;1.20;0.70;;;;;;;-143.84;35.04;44938.63;5091882;28;20453;-59
2023/10/24 10:03:58;;;;;;;0.80;0.40;;;;;;;-143.84;34.17;44946.25;5091788;28;20439;-59
2023/10/24 10:06:28;;;;;;;1.17;0.80;;;;;;;-143.84;35.41;44953.88;5091975;28;20444;-59
2023/10/24 10:08:58;;;;;;;1.07;0.80;;;;;;;-143.84;35.20;44927.19;5091706;28;21143;-60
2023/10/24 10:11:28;;;;;;;0.90;0.50;;;;;;;-143.84;35.90;44934.81;5091777;28;20446;-59
2023/10/24 10:14:04;;;;;;;1.13;1.00;;;;;;;-143.84;35.15;44931.00;5091991;28;21023;-59
2023/10/24 10:16:44;;;;;;;1.10;0.80;;;;;;;-143.84;35.15;44929.09;5090875;28;20992;-59
2023/10/24 10:19:38;;;;;;;1.53;1.20;;;;;;;-143.84;34.28;44913.88;5091311;28;20427;-60
2023/10/24 10:22:29;;;;;;;1.63;1.13;;;;;;;-143.84;34.68;44917.69;5090924;28;20447;-59
2023/10/24 10:25:12;;;;;;;0.90;0.57;;;;;;;-143.84;35.50;44931.00;5091366;28;20489;-59
2023/10/24 10:27:53;;;;;;;1.30;0.60;;;;;;;-143.84;34.72;44927.19;5091564;28;20454;-59
2023/10/24 10:30:31;;;;;;;1.33;0.93;;;;;;;-143.84;34.89;44944.34;5091291;28;20501;-59
2023/10/24 10:33:10;;;;;;;1.00;0.80;;;;;;;-143.84;34.95;44957.66;5091360;28;20826;-59
2023/10/24 10:35:53;;;;;;;1.10;0.73;;;;;;;-143.84;34.91;44931.00;5091205;28;20479;-59
2023/10/24 10:38:41;;;;;;;1.00;0.60;;;;;;;-143.84;35.02;44931.00;5091241;28;20435;-59
2023/10/24 10:41:44;;;;;;;1.23;1.00;;;;;;;-143.84;35.10;44953.88;5091351;28;20792;-59
2023/10/24 10:44:40;;;;;;;0.93;0.57;;;;;;;-143.84;35.43;44934.81;5091289;28;20874;-59
2023/10/24 10:47:12;;;;;;;1.47;0.73;;;;;;;-143.84;36.19;44944.34;5091177;28;20443;-58
2023/10/24 10:49:43;;;;;;;1.00;0.70;;;;;;;-143.84;36.34;44927.19;5090935;28;20440;-59
2023/10/24 10:52:23;;;;;;;1.10;0.77;;;;;;;-143.84;35.47;44925.31;5090882;28;20493;-59
2023/10/24 10:55:01;;;;;;;1.37;1.07;;;;;;;-143.84;35.25;44938.63;5090923;28;20444;-59
2023/10/24 10:57:32;;;;;;;1.93;1.13;;;;;;;-143.84;35.45;44946.25;5089835;28;20480;-58
2023/10/24 11:00:04;;;;;;;2.03;0.77;;;;;;;-143.84;35.54;44959.56;5091277;28;20481;-58
2023/10/24 11:02:48;;;;;;;1.37;0.87;;;;;;;-143.84;35.39;44965.28;5090978;28;20519;-58
2023/10/24 11:05:48;;;;;;;1.40;0.90;;;;;;;-143.84;35.60;44963.38;5090768;28;20464;-58
2023/10/24 11:08:19;;;;;;;1.10;0.63;;;;;;;-143.84;35.27;44948.16;5027900;28;20998;-59
2023/10/24 11:11:00;;;;;;;5.27;1.53;;;;;;;-143.84;35.48;44950.06;5078588;28;20476;-58
2023/10/24 11:13:38;;;;;;;1.17;0.80;;;;;;;-143.84;35.50;44931.00;5090464;28;20530;-59
2023/10/24 11:16:07;;;;;;;1.00;0.63;;;;;;;-143.84;35.82;44940.53;5090602;28;20480;-59
2023/10/24 11:18:36;;;;;;;3.07;0.93;;;;;;;-143.84;36.71;44944.34;5090353;28;20493;-59
2023/10/24 11:21:05;;;;;;;1.63;1.53;;;;;;;-143.84;36.34;44940.53;5090353;28;20459;-59
2023/10/24 11:23:33;;;;;;;0.90;0.60;;;;;;;-143.84;36.16;44951.97;5090366;28;20447;-59